Latest Weather Observations for Pearce

IDW60801

Issued at 9:14 am WST Tuesday 22 September 2020 (issued every 10 minutes, with the page automatically refreshed every 10 minutes)

About weather observations | Map of weather stations | Latest weather observations for WA | Other Formats
Station Details ID: 009053 Name: PEARCE RAAF Lat: -31.67 Lon: 116.02 Height: 40.0 m
Data from the previous 72 hours. | See also: Recent months at Pearce
Date/Time
WST
Temp
°C
App
Temp
°C
Dew
Point
°C
Rel
Hum
%
Delta-T
°C
Wind Press
QNH
hPa
Press
MSL
hPa
Rain since
9am
mm
Dir  Spd
km/h
Gust
km/h
Spd
kts
Gust
kts
22/09:00am 14.0 13.5 11.9 87 1.1 NW 6 9 3 5 1024.7 1024.7 0.2
22/08:57am 13.8 13.0 11.7 87 1.1 NW 7 11 4 6 1024.7 1024.7 0.2
22/08:52am 14.1 13.4 12.0 87 1.1 NW 7 11 4 6 1024.6 1024.6 0.2
22/08:30am 13.8 14.5 12.2 90 0.9 CALM 0 0 0 0 1024.4 1024.4 0.2
22/08:00am 12.4 11.5 11.3 93 0.6 S 7 13 4 7 1024.2 1024.2 0.2
22/07:30am 11.8 11.0 10.9 94 0.5 NNE 6 9 3 5 1023.7 1023.7 0.2
22/07:00am 10.2 8.9 9.3 94 0.4 N 6 6 3 3 1023.5 1023.5 0.2
22/06:30am 9.9 8.5 9.0 94 0.4 N 6 9 3 5 1023.2 1023.2 0.2
22/06:00am 10.0 8.5 9.1 94 0.4 N 7 9 4 5 1022.9 1022.9 0.2
22/05:30am 9.8 8.2 8.7 93 0.5 N 7 11 4 6 1022.7 1022.7 0.2
22/05:00am 10.6 8.9 9.7 94 0.5 N 9 11 5 6 1022.5 1022.5 0.2
22/04:30am 10.5 9.1 9.6 94 0.5 NNW 7 9 4 5 1022.4 1022.4 0.2
22/04:00am 10.2 8.7 9.3 94 0.4 N 7 9 4 5 1022.2 1022.2 0.2
22/03:30am 10.1 9.9 9.2 94 0.4 CALM 0 2 0 1 1022.2 1022.2 0.2
22/03:00am 9.5 7.8 8.4 93 0.5 NNW 7 9 4 5 1022.4 1022.4 0.2
22/02:30am 9.9 9.6 8.8 93 0.5 CALM 0 0 0 0 1022.3 1022.3 0.2
22/02:00am 10.2 8.3 9.1 93 0.5 NNE 9 13 5 7 1022.4 1022.4 0.2
22/01:30am 10.2 9.3 9.1 93 0.5 N 4 9 2 5 1022.6 1022.6 0.2
22/01:00am 9.9 9.6 8.8 93 0.5 CALM 0 0 0 0 1022.6 1022.6 0.2
22/12:30am 9.3 7.5 8.1 92 0.6 N 7 7 4 4 1022.6 1022.6 0.2
22/12:00am 10.1 8.7 8.7 91 0.7 NNW 6 9 3 5 1022.5 1022.5 0.2
 
Date/Time
WST
Temp
°C
App
Temp
°C
Dew
Point
°C
Rel
Hum
%
Delta-T
°C
Wind Press
QNH
hPa
Press
MSL
hPa
Rain since
9am
mm
Dir  Spd
km/h
Gust
km/h
Spd
kts
Gust
kts
21/11:30pm 11.6 10.3 9.9 89 0.9 NNE 7 9 4 5 1022.5 1022.5 0.2
21/11:00pm 11.7 10.5 10.3 91 0.7 NE 7 9 4 5 1022.7 1022.7 0.2
21/10:30pm 11.3 10.0 9.9 91 0.7 NNE 7 9 4 5 1023.1 1023.1 0.2
21/10:00pm 12.0 12.1 10.2 89 0.9 CALM 0 6 0 3 1023.5 1023.5 0.2
21/09:30pm 12.1 11.1 10.3 89 0.9 NE 6 7 3 4 1023.4 1023.4 0.2
21/09:00pm 12.6 11.7 10.7 88 1.0 SW 6 7 3 4 1023.7 1023.7 0.2
21/08:30pm 12.8 13.1 10.9 88 1.0 CALM 0 0 0 0 1023.9 1023.9 0.2
21/08:00pm 12.7 11.2 10.4 86 1.2 W 9 13 5 7 1023.8 1023.8 0.2
21/07:30pm 12.6 11.7 9.4 81 1.6 SW 4 9 2 5 1023.3 1023.3 0.2
21/07:00pm 13.3 12.0 10.1 81 1.6 SW 7 9 4 5 1023.0 1023.0 0.2
21/06:30pm 13.2 12.0 10.4 83 1.5 SSE 7 9 4 5 1023.0 1023.0 0.2
21/06:00pm 13.4 10.9 9.8 79 1.8 S 13 17 7 9 1022.8 1022.8 0.2
21/05:30pm 14.5 11.2 9.5 72 2.6 WSW 17 20 9 11 1022.7 1022.7 0.2
21/05:00pm 14.8 11.8 9.4 70 2.8 WSW 15 20 8 11 1022.4 1022.4 0.2
21/04:30pm 15.2 10.7 8.7 65 3.3 SW 22 32 12 17 1022.3 1022.3 0.2
21/04:00pm 16.2 12.0 8.2 59 4.0 WSW 20 28 11 15 1021.9 1021.9 0.2
21/03:30pm 16.7 12.0 7.6 55 4.6 WSW 22 30 12 16 1021.8 1021.8 0.2
21/03:00pm 16.6 12.8 7.5 55 4.5 SW 17 26 9 14 1021.8 1021.8 0.2
21/02:30pm 17.7 13.2 6.9 49 5.4 SW 20 30 11 16 1021.9 1021.9 0.2
21/02:00pm 16.9 12.4 7.0 52 4.9 SW 20 32 11 17 1021.9 1021.9 0.2
21/01:30pm 16.8 11.8 8.0 56 4.5 WSW 24 32 13 17 1022.1 1022.1 0.2
21/01:00pm 16.4 11.8 8.1 58 4.2 SSW 22 32 12 17 1022.0 1022.0 0.2
21/12:30pm 17.1 12.0 7.7 54 4.7 WSW 24 35 13 19 1022.1 1022.1 0.2
21/12:00pm 16.7 10.8 5.9 49 5.2 SW 26 32 14 17 1022.4 1022.4 0.2
21/11:30am 16.6 12.7 7.0 53 4.8 SW 17 24 9 13 1022.4 1022.4 0.2
21/11:00am 16.7 13.7 7.9 56 4.4 SSW 13 24 7 13 1022.4 1022.4 0.0
21/10:30am 15.7 11.4 7.7 59 4.0 SSW 20 30 11 16 1022.7 1022.7 0.0
21/10:00am 15.1 12.4 9.0 67 3.1 SSW 13 20 7 11 1022.8 1022.8 0.0
21/09:30am 14.3 11.8 8.3 67 3.0 SSE 11 17 6 9 1022.7 1022.7 0.0
21/09:00am 12.9 10.8 8.2 73 2.3 S 9 15 5 8 1022.8 1022.8 4.4
21/08:30am 12.6 12.0 10.3 86 1.2 WSW 4 9 2 5 1022.6 1022.6 4.4
21/08:00am 10.6 10.5 9.5 93 0.5 CALM 0 0 0 0 1022.5 1022.5 4.4
21/07:30am 9.5 7.8 8.4 93 0.5 NNW 7 9 4 5 1022.1 1022.1 4.4
21/07:00am 9.3 8.5 8.2 93 0.5 N 2 6 1 3 1021.9 1021.9 4.4
21/06:30am 8.5 7.9 7.4 93 0.5 CALM 0 0 0 0 1021.7 1021.7 4.4
21/06:00am 8.2 7.5 7.1 93 0.5 CALM 0 0 0 0 1021.5 1021.5 4.4
21/05:30am 7.6 5.5 6.5 93 0.5 N 7 9 4 5 1021.1 1021.1 4.4
21/05:00am 7.5 5.4 6.6 94 0.4 NNE 7 9 4 5 1020.9 1020.9 4.4
21/04:30am 6.9 4.3 6.0 94 0.4 N 9 11 5 6 1020.7 1020.7 4.4
21/04:00am 7.2 6.0 6.3 94 0.4 NE 2 6 1 3 1020.5 1020.5 4.4
21/03:30am 6.3 3.9 5.3 93 0.4 NNW 7 9 4 5 1020.4 1020.4 4.4
21/03:00am 6.4 4.2 5.2 92 0.5 NNW 6 9 3 5 1020.4 1020.4 4.4
21/02:30am 7.8 6.3 6.7 93 0.5 NNE 4 7 2 4 1020.6 1020.6 4.4
21/02:00am 8.0 7.3 6.9 93 0.5 CALM 0 4 0 2 1020.8 1020.8 4.4
21/01:30am 7.1 5.0 6.0 93 0.5 N 6 9 3 5 1020.9 1020.9 4.4
21/01:00am 7.5 6.7 6.3 92 0.5 CALM 0 0 0 0 1020.7 1020.7 4.4
21/12:30am 8.6 7.6 7.5 93 0.5 NE 2 6 1 3 1020.9 1020.9 4.4
21/12:00am 8.6 8.0 7.4 92 0.6 CALM 0 0 0 0 1020.9 1020.9 4.4
 
Date/Time
WST
Temp
°C
App
Temp
°C
Dew
Point
°C
Rel
Hum
%
Delta-T
°C
Wind Press
QNH
hPa
Press
MSL
hPa
Rain since
9am
mm
Dir  Spd
km/h
Gust
km/h
Spd
kts
Gust
kts
20/11:30pm 8.9 7.6 7.7 92 0.6 NE 4 9 2 5 1020.8 1020.8 4.4
20/11:00pm 9.9 9.2 8.5 91 0.7 NE 2 7 1 4 1020.8 1020.8 4.4
20/10:30pm 10.2 9.9 8.8 91 0.7 CALM 0 7 0 4 1020.8 1020.8 4.4
20/10:00pm 10.1 8.1 8.7 91 0.7 N 9 11 5 6 1020.8 1020.8 4.4
20/09:30pm 10.6 8.7 8.9 89 0.8 N 9 13 5 7 1021.0 1021.0 4.4
20/09:00pm 10.7 9.0 8.5 86 1.1 SSE 7 9 4 5 1020.7 1020.7 4.4
20/08:30pm 11.2 10.7 9.3 88 1.0 S 2 6 1 3 1020.6 1020.6 4.4
20/08:00pm 11.7 9.2 9.8 88 1.0 SSW 13 19 7 10 1020.5 1020.5 4.4
20/07:45pm 11.5 8.3 9.8 89 0.9 SW 17 20 9 11 1020.3 1020.3 4.4
20/07:30pm 11.4 7.7 9.5 88 1.0 WSW 19 30 10 16 1020.4 1020.4 4.0
20/07:00pm 11.7 7.9 8.9 83 1.4 SSW 19 24 10 13 1019.8 1019.8 3.6
20/06:30pm 11.8 8.5 9.5 86 1.2 SW 17 20 9 11 1019.5 1019.4 3.4
20/06:20pm 11.8 7.5 9.4 85 1.2 SW 22 33 12 18 1019.3 1019.2 3.4
20/06:09pm 11.7 7.8 9.6 87 1.1 SW 20 26 11 14 1019.3 1019.2 3.4
20/06:03pm 11.7 8.0 9.6 87 1.1 SW 19 26 10 14 1019.3 1019.2 3.0
20/06:00pm 11.8 8.1 9.5 86 1.2 SW 19 32 10 17 1019.2 1019.1 2.8
20/05:52pm 12.0 7.0 9.4 84 1.3 SW 26 39 14 21 1019.1 1019.0 2.6
20/05:30pm 13.0 8.5 8.5 74 2.2 SSW 22 33 12 18 1018.6 1018.5 1.8
20/05:13pm 13.2 7.5 8.3 72 2.4 SW 28 44 15 24 1018.5 1018.4 1.8
20/05:00pm 13.9 9.8 8.7 71 2.6 SW 20 26 11 14 1018.2 1018.1 1.8
20/04:45pm 14.2 8.8 9.6 74 2.4 SW 28 41 15 22 1018.1 1018.0 1.8
20/04:30pm 13.5 10.5 10.7 83 1.5 WSW 17 22 9 12 1018.1 1018.0 1.8
20/04:00pm 12.4 6.3 9.6 83 1.4 WSW 32 48 17 26 1017.9 1017.8 1.8
20/03:46pm 14.3 8.5 7.8 65 3.2 SW 28 46 15 25 1017.7 1017.6 1.6
20/03:30pm 14.4 7.2 9.2 71 2.7 SW 37 54 20 29 1017.6 1017.5 1.6
20/03:22pm 13.5 5.3 8.4 71 2.6 SW 41 61 22 33 1017.6 1017.5 1.6
20/03:16pm 15.3 8.7 7.6 60 3.8 WSW 32 57 17 31 1017.2 1017.1 1.6
20/03:00pm 15.4 9.4 8.6 64 3.5 SW 30 43 16 23 1017.3 1017.2 1.6
20/02:37pm 14.7 6.9 8.2 65 3.3 SW 39 57 21 31 1017.2 1017.1 1.6
20/02:30pm 15.8 9.2 9.9 68 3.1 SW 35 52 19 28 1017.0 1016.9 1.6
20/02:24pm 14.7 8.2 8.2 65 3.3 SW 32 52 17 28 1017.0 1016.9 1.6
20/02:18pm 14.8 8.7 9.8 72 2.6 SW 32 43 17 23 1017.1 1017.0 1.6
20/02:02pm 12.1 3.4 8.4 78 1.8 SW 44 74 24 40 1017.3 1017.2 1.6
20/02:00pm 12.3 3.0 7.4 72 2.4 SW 46 74 25 40 1017.2 1017.1 1.4
20/01:58pm 14.9 6.2 7.7 62 3.6 WSW 43 74 23 40 1016.9 1016.8 0.8
20/01:35pm 15.9 9.3 8.6 62 3.7 SW 33 52 18 28 1016.8 1016.7 0.8
20/01:30pm 15.5 9.0 8.3 62 3.6 SW 32 44 17 24 1016.9 1016.8 0.8
20/01:10pm 14.8 7.3 8.1 64 3.4 SW 37 57 20 31 1016.8 1016.7 0.8
20/01:00pm 16.3 8.9 8.3 59 4.1 SW 37 50 20 27 1016.9 1016.8 0.8
20/12:52pm 15.3 8.5 7.1 58 4.0 SW 32 50 17 27 1016.9 1016.8 0.8
20/12:30pm 14.6 7.0 9.2 70 2.8 SW 39 69 21 37 1017.1 1017.0 0.8
20/12:22pm 13.1 4.6 7.1 67 2.9 SW 41 74 22 40 1017.1 1017.0 0.8
20/12:21pm 13.8 5.8 7.3 65 3.2 SW 39 74 21 40 1016.9 1016.8 0.8
20/12:20pm 14.7 7.0 7.3 61 3.6 SW 37 74 20 40 1016.9 1016.8 0.8
20/12:12pm 15.7 9.5 9.4 66 3.3 SW 32 50 17 27 1017.1 1017.0 0.8
20/12:00pm 14.9 8.2 9.5 70 2.8 SW 35 46 19 25 1017.1 1017.0 0.8
20/11:55am 14.1 7.2 8.9 71 2.6 WSW 35 54 19 29 1017.0 1016.9 0.8
20/11:49am 15.1 9.8 9.9 71 2.7 WSW 28 46 15 25 1017.0 1016.9 0.8
20/11:38am 14.0 8.4 10.2 78 2.0 WSW 30 39 16 21 1017.2 1017.1 0.8
20/11:31am 13.2 6.5 9.6 79 1.8 WSW 35 54 19 29 1017.2 1017.1 0.8
20/11:30am 13.0 5.8 9.3 78 1.9 WSW 37 54 20 29 1017.2 1017.1 0.8
20/11:27am 12.5 4.1 8.8 78 1.9 WSW 43 65 23 35 1017.2 1017.1 0.8
20/11:00am 15.9 6.9 4.6 47 5.3 SW 41 61 22 33 1016.7 1016.6 0.0
20/10:32am 14.5 5.4 6.6 59 3.8 WSW 44 67 24 36 1016.7 1016.6 0.0
20/10:30am 14.3 4.6 5.7 56 4.1 WSW 46 67 25 36 1016.5 1016.4 0.0
20/10:19am 15.8 8.9 6.5 54 4.5 WSW 32 50 17 27 1016.4 1016.3 0.0
20/10:00am 14.0 7.4 7.8 66 3.1 SW 32 46 17 25 1016.6 1016.5 0.0
20/09:30am 12.7 6.6 8.4 75 2.1 WSW 30 59 16 32 1016.7 1016.6 0.0
20/09:00am 12.5 5.5 7.0 69 2.6 SW 33 52 18 28 1016.5 1016.4 4.4
20/08:50am 13.1 6.9 7.8 70 2.6 SW 30 56 16 30 1016.3 1016.2 4.4
20/08:30am 12.6 8.9 9.6 82 1.5 SSW 19 24 10 13 1016.2 1016.1 4.4
20/08:00am 12.3 7.5 7.4 72 2.4 W 22 37 12 20 1015.7 1015.6 4.2
20/07:30am 11.6 6.9 7.9 78 1.8 WSW 22 32 12 17 1015.4 1015.3 4.2
20/07:00am 11.4 6.9 6.9 74 2.1 WSW 20 30 11 16 1014.7 1014.7 4.0
20/06:30am 10.9 5.8 7.6 80 1.6 SW 24 33 13 18 1014.6 1014.6 4.0
20/06:00am 10.5 6.1 7.2 80 1.6 WSW 20 35 11 19 1014.2 1014.2 3.6
20/05:30am 10.3 7.1 6.8 79 1.7 W 13 20 7 11 1013.9 1013.9 3.2
20/05:00am 11.0 6.4 6.4 73 2.2 WSW 20 32 11 17 1013.7 1013.7 2.6
20/04:30am 10.5 5.7 5.5 71 2.3 WSW 20 30 11 16 1013.5 1013.5 2.6
20/04:03am 10.7 3.4 5.5 70 2.4 WSW 33 59 18 32 1013.4 1013.4 2.6
20/04:00am 10.8 4.8 5.3 69 2.5 WSW 26 59 14 32 1013.6 1013.6 2.6
20/03:59am 11.1 5.5 5.2 67 2.7 WSW 24 59 13 32 1013.5 1013.5 2.6
20/03:30am 11.2 6.9 5.1 66 2.8 WSW 17 26 9 14 1013.5 1013.5 2.6
20/03:00am 11.1 6.5 5.4 68 2.6 WSW 19 28 10 15 1013.4 1013.4 2.6
20/02:30am 10.7 4.2 4.8 67 2.7 SW 28 35 15 19 1013.5 1013.5 2.6
20/02:10am 11.6 5.1 4.8 63 3.1 WSW 28 44 15 24 1013.4 1013.4 2.6
20/02:00am 10.8 6.0 4.5 65 2.8 WSW 19 26 10 14 1013.4 1013.4 2.6
20/01:30am 11.2 4.8 5.1 66 2.8 WSW 28 43 15 23 1013.7 1013.7 2.6
20/01:00am 11.4 4.7 3.7 59 3.4 WSW 28 35 15 19 1013.7 1013.7 2.6
20/12:30am 10.5 5.6 5.3 70 2.4 WSW 20 26 11 14 1013.8 1013.8 2.6
20/12:00am 10.4 3.9 4.5 67 2.6 WSW 28 41 15 22 1014.0 1014.0 2.6
 
Date/Time
WST
Temp
°C
App
Temp
°C
Dew
Point
°C
Rel
Hum
%
Delta-T
°C
Wind Press
QNH
hPa
Press
MSL
hPa
Rain since
9am
mm
Dir  Spd
km/h
Gust
km/h
Spd
kts
Gust
kts
19/11:30pm 9.5 4.6 5.1 74 2.0 W 20 33 11 18 1014.2 1014.2 2.6
19/11:10pm 9.8 6.1 6.5 80 1.5 WSW 15 39 8 21 1014.2 1014.2 2.6
19/11:00pm 8.8 6.6 6.4 85 1.1 SW 7 9 4 5 1014.3 1014.3 2.6
19/10:30pm 8.8 4.2 6.3 84 1.2 WSW 20 28 11 15 1014.4 1014.4 2.6
19/10:14pm 9.4 2.2 6.1 80 1.5 W 33 56 18 30 1014.7 1014.7 2.4
19/10:11pm 9.7 3.8 5.9 77 1.7 W 26 46 14 25 1014.3 1014.3 2.0
19/10:00pm 10.7 5.5 5.5 70 2.4 WSW 22 28 12 15 1013.9 1013.9 1.4
19/09:32pm 9.2 4.1 6.1 81 1.4 WSW 22 32 12 17 1014.0 1014.0 1.4
19/09:30pm 9.2 4.2 6.3 82 1.3 WSW 22 32 12 17 1014.0 1014.0 1.4
19/09:21pm 8.9 1.8 5.6 80 1.5 WSW 32 50 17 27 1014.0 1014.0 1.4
19/09:16pm 9.3 1.2 5.3 76 1.8 WSW 37 50 20 27 1014.0 1014.0 1.2
19/09:11pm 10.0 1.9 5.2 72 2.2 WSW 37 69 20 37 1013.8 1013.8 0.6
19/09:07pm 10.6 3.5 5.6 71 2.3 SW 32 69 17 37 1014.0 1014.0 0.4
19/09:04pm 10.7 4.7 5.3 69 2.5 SW 26 65 14 35 1014.2 1014.2 0.4
19/09:00pm 10.6 6.0 5.4 70 2.4 SSW 19 28 10 15 1014.1 1014.1 0.4
19/08:30pm 12.4 4.2 2.8 52 4.2 WSW 35 46 19 25 1013.6 1013.6 0.4
19/08:05pm 12.8 5.0 2.6 50 4.5 WSW 33 57 18 31 1013.2 1013.2 0.4
19/08:00pm 12.8 5.0 2.9 51 4.4 WSW 33 46 18 25 1013.1 1013.1 0.4
19/07:39pm 12.7 5.4 4.4 57 3.8 WSW 32 50 17 27 1012.9 1012.9 0.4
19/07:30pm 12.8 5.5 4.3 56 3.9 WSW 32 44 17 24 1012.7 1012.7 0.4
19/07:00pm 12.2 3.0 5.4 63 3.2 WSW 43 61 23 33 1012.6 1012.6 0.4
19/06:53pm 12.4 2.3 5.8 64 3.1 WSW 48 72 26 39 1012.5 1012.5 0.4
19/06:48pm 12.7 4.7 5.6 62 3.3 WSW 37 72 20 39 1012.3 1012.3 0.4
19/06:47pm 12.9 5.3 5.8 62 3.3 WSW 35 72 19 39 1012.2 1012.2 0.4
19/06:45pm 13.2 6.3 4.6 56 4.0 WSW 30 52 16 28 1012.3 1012.3 0.4
19/06:30pm 13.3 5.4 4.5 55 4.0 WSW 35 50 19 27 1011.9 1011.9 0.4
19/06:01pm 13.3 4.0 5.0 57 3.9 WSW 43 61 23 33 1011.9 1011.9 0.4
19/06:00pm 13.3 3.8 4.7 56 4.0 WSW 44 61 24 33 1011.9 1011.9 0.4
19/05:31pm 13.9 4.7 3.7 50 4.6 WSW 41 59 22 32 1011.6 1011.6 0.4
19/05:30pm 13.9 4.4 3.7 50 4.6 WSW 43 59 23 32 1011.5 1011.5 0.4
19/05:00pm 14.9 4.5 4.0 48 5.0 WSW 48 70 26 38 1011.2 1011.2 0.4
19/04:31pm 14.8 7.2 5.9 55 4.3 WSW 35 57 19 31 1010.8 1010.8 0.4
19/04:30pm 14.8 7.6 5.9 55 4.3 WSW 33 50 18 27 1010.8 1010.8 0.4
19/04:17pm 15.1 6.1 4.8 50 4.8 W 41 59 22 32 1010.8 1010.8 0.4
19/04:00pm 15.3 5.7 4.4 48 5.1 WSW 44 59 24 32 1010.6 1010.6 0.4
19/03:41pm 15.6 6.3 4.9 49 5.1 W 43 63 23 34 1009.8 1009.8 0.4
19/03:30pm 15.5 6.6 7.0 57 4.2 WSW 43 57 23 31 1010.0 1010.0 0.4
19/03:01pm 16.0 7.8 6.4 53 4.7 WSW 39 57 21 31 1010.0 1010.0 0.4
19/03:00pm 15.9 8.1 6.6 54 4.6 WSW 37 52 20 28 1010.0 1010.0 0.4
19/02:30pm 16.7 9.4 8.9 60 4.0 WSW 37 56 20 30 1009.8 1009.8 0.4
19/02:25pm 16.2 8.8 8.4 60 4.0 WSW 37 56 20 30 1009.9 1009.9 0.4
19/02:00pm 15.8 9.5 9.7 67 3.2 WSW 33 46 18 25 1009.9 1009.9 0.4
19/01:47pm 14.9 9.4 9.3 69 2.9 W 28 50 15 27 1009.8 1009.8 0.4
19/01:30pm 13.7 7.5 9.4 75 2.2 W 32 41 17 22 1009.8 1009.8 0.4
19/01:00pm 17.4 11.7 8.3 55 4.7 WSW 28 43 15 23 1009.7 1009.7 0.0
19/12:31pm 13.6 6.1 9.6 77 2.1 WSW 39 57 21 31 1010.3 1010.3 0.0
19/12:30pm 13.5 5.6 9.4 76 2.1 WSW 41 57 22 31 1010.3 1010.3 0.0
19/12:21pm 16.3 8.7 7.5 56 4.4 W 37 56 20 30 1009.8 1009.8 0.0
19/12:00pm 17.2 9.9 5.5 46 5.7 WSW 33 46 18 25 1009.8 1009.8 0.0
19/11:30am 17.2 10.1 6.4 49 5.3 WSW 33 50 18 27 1009.9 1009.9 0.0
19/11:00am 16.4 8.9 6.5 52 4.9 SW 35 44 19 24 1010.1 1010.1 0.0
19/10:30am 17.1 10.2 7.2 52 5.0 WSW 33 46 18 25 1010.3 1010.3 0.0
19/10:00am 15.5 8.7 7.8 60 3.9 SW 33 44 18 24 1010.0 1010.0 0.0
19/09:30am 15.4 10.8 8.2 62 3.6 WSW 22 32 12 17 1010.0 1010.0 0.0

Other formats

Comma delimited format used in spreadsheet applications
http://www.bom.gov.au/fwo/IDW60801/IDW60801.94612.axf

JavaScript Object Notation format (JSON) in row-major order
http://www.bom.gov.au/fwo/IDW60801/IDW60801.94612.json

Data quality

Most of these data are generated automatically and are frequently updated. Quality checks on data are not normally performed. It is possible for incorrect values to appear. Refer to information at About Latest Weather Observations and please check the disclaimer before using these data.